Hawkesbury, Canada
Current Conditions -  °F | °C
As of 10:00 AM on Thursday 30 Oct 2014 (Local Time) from CYMX Reporting Station
Few Clouds Few Clouds  
Wind Chill: 40°   Ceiling: Unl
Heat Index: 43°   Visibility: 45mi
Dew Point: 34°   Wind: 5mph
Humidity: 70%   Direction: 260°W
Pressure: 29.98"   Gusts: NA
Location:  45.61°N, 74.61°W
Report Text: CYMX 301400Z 26004KT 220V300 45SM FEW024 06/01 A2998 RMK SC2 SLP156
Loading
Personal Weather Stations






























Interactive Weather Map
Tropical Storm Tracking
New forecast layout! Learn more

10-Day Weather Forecast

Advertisements
Track Severe Weather on mobile